createdAt,value
2017-01-23T00:00:08.977Z,20.94
2017-01-23T00:00:26.171Z,20.96
2017-01-23T00:00:43.384Z,20.99
2017-01-23T00:01:00.588Z,21.01
2017-01-23T00:01:17.813Z,20.99
2017-01-23T00:01:35.000Z,21.01
2017-01-23T00:01:52.190Z,20.99
2017-01-23T00:02:09.395Z,20.98
2017-01-23T00:02:26.599Z,20.99
2017-01-23T00:02:43.797Z,21.01
2017-01-23T00:03:00.988Z,21.02
2017-01-23T00:03:18.784Z,21.02
2017-01-23T00:03:35.996Z,21.01
2017-01-23T00:03:53.182Z,20.98
2017-01-23T00:04:10.366Z,21.01
2017-01-23T00:04:27.523Z,21.04
2017-01-23T00:04:44.718Z,21.04
2017-01-23T00:05:01.915Z,21.04
2017-01-23T00:05:19.098Z,20.94
2017-01-23T00:05:36.293Z,20.98
2017-01-23T00:05:53.506Z,21.02
2017-01-23T00:06:10.708Z,21.04
2017-01-23T00:06:27.905Z,21.06
2017-01-23T00:06:45.108Z,20.94
2017-01-23T00:07:02.270Z,20.99
2017-01-23T00:07:19.431Z,21.05
2017-01-23T00:07:36.603Z,21.01
2017-01-23T00:07:53.765Z,20.96
2017-01-23T00:08:10.943Z,21.04
2017-01-23T00:08:28.138Z,20.98
2017-01-23T00:08:45.502Z,20.99
2017-01-23T00:09:02.694Z,21.06
2017-01-23T00:09:19.887Z,21.01
2017-01-23T00:09:37.088Z,21.06
2017-01-23T00:09:54.269Z,21.01
2017-01-23T00:10:11.461Z,21.02
2017-01-23T00:10:28.638Z,21.02
2017-01-23T00:10:45.841Z,20.94
2017-01-23T00:11:03.020Z,21.06
2017-01-23T00:11:20.192Z,21.01
2017-01-23T00:11:37.389Z,20.99
2017-01-23T00:11:54.563Z,21.01
2017-01-23T00:12:11.765Z,21.01
2017-01-23T00:12:28.964Z,21.09
2017-01-23T00:12:46.171Z,20.96
2017-01-23T00:13:03.352Z,21.01
2017-01-23T00:13:20.557Z,20.98
2017-01-23T00:13:37.732Z,21.01
2017-01-23T00:13:54.936Z,20.99
2017-01-23T00:14:12.185Z,21.04
2017-01-23T00:14:29.366Z,21.02
2017-01-23T00:14:46.546Z,21.08
2017-01-23T00:15:03.745Z,20.94
2017-01-23T00:15:20.925Z,21.01
2017-01-23T00:15:38.114Z,21.02
2017-01-23T00:15:55.318Z,20.99
2017-01-23T00:16:12.501Z,20.98
2017-01-23T00:16:29.665Z,21.01
2017-01-23T00:16:46.865Z,20.96
2017-01-23T00:17:04.087Z,21.01
2017-01-23T00:17:21.252Z,20.98
2017-01-23T00:17:38.459Z,21.01
2017-01-23T00:17:55.666Z,21.01
2017-01-23T00:18:12.831Z,21.04
2017-01-23T00:18:30.030Z,21.05
2017-01-23T00:18:47.193Z,20.98
2017-01-23T00:19:04.405Z,20.99
2017-01-23T00:19:21.595Z,20.99
2017-01-23T00:19:38.786Z,21.04
2017-01-23T00:19:55.952Z,20.99
2017-01-23T00:20:13.107Z,20.98
2017-01-23T00:20:30.297Z,20.99
2017-01-23T00:20:47.491Z,21.02
2017-01-23T00:21:04.683Z,20.99
2017-01-23T00:21:21.867Z,21.04
2017-01-23T00:21:39.047Z,20.99
2017-01-23T00:21:56.256Z,21.04
2017-01-23T00:22:13.448Z,20.98
2017-01-23T00:22:30.623Z,21.04
2017-01-23T00:22:47.829Z,20.99
2017-01-23T00:23:05.016Z,20.99
2017-01-23T00:23:22.223Z,20.96
2017-01-23T00:23:39.414Z,20.99
2017-01-23T00:23:56.600Z,20.96
2017-01-23T00:24:13.812Z,20.99
2017-01-23T00:24:31.040Z,21.02
2017-01-23T00:24:48.203Z,21.04
2017-01-23T00:25:05.530Z,20.99
2017-01-23T00:25:22.710Z,20.94
2017-01-23T00:25:39.911Z,21.01
2017-01-23T00:25:57.107Z,20.99
2017-01-23T00:26:14.301Z,21.01
2017-01-23T00:26:31.495Z,20.98
2017-01-23T00:26:48.703Z,21.01
2017-01-23T00:27:05.856Z,20.96
2017-01-23T00:27:23.028Z,21.02
2017-01-23T00:27:40.223Z,21.01
2017-01-23T00:27:57.394Z,20.98
2017-01-23T00:28:14.591Z,20.98
2017-01-23T00:28:31.789Z,20.96
2017-01-23T00:28:49.634Z,20.99
2017-01-23T00:29:06.816Z,20.94
2017-01-23T00:29:23.994Z,21.01
2017-01-23T00:29:41.194Z,20.94
2017-01-23T00:29:58.384Z,21.01
2017-01-23T00:30:15.597Z,21.01
2017-01-23T00:30:32.756Z,20.99
2017-01-23T00:30:49.953Z,20.99
2017-01-23T00:31:07.134Z,20.98
2017-01-23T00:31:24.323Z,21.04
2017-01-23T00:31:41.512Z,20.98
2017-01-23T00:31:58.692Z,21.02
2017-01-23T00:32:15.889Z,20.98
2017-01-23T00:32:33.077Z,20.89
2017-01-23T00:32:50.294Z,20.96
2017-01-23T00:33:07.486Z,20.99
2017-01-23T00:33:24.658Z,21.01
2017-01-23T00:33:41.860Z,21.02
2017-01-23T00:33:59.054Z,20.99
2017-01-23T00:34:16.262Z,20.94
2017-01-23T00:34:33.484Z,21.04
2017-01-23T00:34:50.718Z,20.99
2017-01-23T00:35:07.905Z,20.96
2017-01-23T00:35:25.094Z,20.94
2017-01-23T00:35:42.305Z,20.99
2017-01-23T00:35:59.491Z,20.96
2017-01-23T00:36:16.686Z,20.96
2017-01-23T00:36:33.860Z,20.99
2017-01-23T00:36:51.036Z,20.98
2017-01-23T00:37:08.212Z,20.94
2017-01-23T00:37:25.384Z,20.94
2017-01-23T00:37:42.590Z,20.96
2017-01-23T00:37:59.784Z,20.9
2017-01-23T00:38:16.975Z,20.96
2017-01-23T00:38:34.176Z,20.94
2017-01-23T00:38:51.381Z,20.87
2017-01-23T00:39:08.605Z,20.96
2017-01-23T00:39:25.782Z,20.91
2017-01-23T00:39:42.978Z,20.87
2017-01-23T00:40:00.183Z,20.87
2017-01-23T00:40:17.658Z,20.98
2017-01-23T00:40:34.825Z,20.99
2017-01-23T00:40:52.014Z,20.89
2017-01-23T00:41:09.233Z,20.9
2017-01-23T00:41:26.432Z,20.91
2017-01-23T00:41:43.631Z,20.91
2017-01-23T00:42:00.838Z,20.87
2017-01-23T00:42:18.014Z,20.87
2017-01-23T00:42:35.405Z,20.94
2017-01-23T00:42:52.617Z,20.87
2017-01-23T00:43:09.824Z,20.91
2017-01-23T00:43:27.055Z,20.94
2017-01-23T00:43:44.263Z,20.94
2017-01-23T00:44:01.455Z,20.94
2017-01-23T00:44:18.645Z,20.94
2017-01-23T00:44:35.877Z,20.98
2017-01-23T00:44:53.064Z,20.93
2017-01-23T00:45:10.238Z,20.96
2017-01-23T00:45:27.436Z,20.96
2017-01-23T00:45:44.644Z,20.87
2017-01-23T00:46:01.810Z,21.01
2017-01-23T00:46:19.003Z,20.91
2017-01-23T00:46:36.196Z,20.87
2017-01-23T00:46:53.410Z,20.93
2017-01-23T00:47:10.607Z,21.01
2017-01-23T00:47:27.793Z,20.93
2017-01-23T00:47:44.954Z,20.93
2017-01-23T00:48:02.144Z,20.99
2017-01-23T00:48:19.324Z,20.91
2017-01-23T00:48:36.519Z,20.93
2017-01-23T00:48:53.707Z,20.96
2017-01-23T00:49:10.901Z,21.01
2017-01-23T00:49:28.072Z,20.93
2017-01-23T00:49:45.266Z,20.98
2017-01-23T00:50:02.644Z,20.93
2017-01-23T00:50:20.473Z,20.9
2017-01-23T00:50:37.648Z,20.91
2017-01-23T00:50:54.843Z,20.98
2017-01-23T00:51:12.018Z,20.9
2017-01-23T00:51:29.232Z,20.93
2017-01-23T00:51:47.082Z,20.94
2017-01-23T00:52:04.267Z,20.9
2017-01-23T00:52:21.478Z,20.89
2017-01-23T00:52:38.678Z,20.96
2017-01-23T00:52:55.861Z,20.96
2017-01-23T00:53:13.075Z,20.91
2017-01-23T00:53:30.271Z,20.93
2017-01-23T00:53:47.479Z,21.04
2017-01-23T00:54:04.684Z,20.96
2017-01-23T00:54:21.896Z,20.93
2017-01-23T00:54:39.104Z,20.96
2017-01-23T00:54:56.279Z,21.04
2017-01-23T00:55:13.458Z,21.04
2017-01-23T00:55:30.642Z,20.91
2017-01-23T00:55:47.822Z,20.96
2017-01-23T00:56:05.046Z,20.98
2017-01-23T00:56:22.235Z,20.9
2017-01-23T00:56:39.422Z,20.94
2017-01-23T00:56:56.579Z,21.01
2017-01-23T00:57:13.790Z,20.96
2017-01-23T00:57:30.982Z,20.98
2017-01-23T00:57:48.181Z,20.99
2017-01-23T00:58:05.353Z,21.04
2017-01-23T00:58:22.543Z,20.93
2017-01-23T00:58:39.748Z,20.93
2017-01-23T00:58:56.950Z,20.98
2017-01-23T00:59:14.177Z,20.9
2017-01-23T00:59:31.399Z,21.04
2017-01-23T00:59:48.612Z,21.02
2017-01-23T01:00:05.811Z,20.94
2017-01-23T01:00:23.004Z,20.9
2017-01-23T01:00:40.211Z,21.01
2017-01-23T01:00:57.416Z,20.93
2017-01-23T01:01:14.609Z,20.98
2017-01-23T01:01:31.829Z,20.96
2017-01-23T01:01:49.018Z,21.01
2017-01-23T01:02:06.215Z,20.89
2017-01-23T01:02:23.402Z,20.89
2017-01-23T01:02:40.566Z,20.96
2017-01-23T01:03:12.134Z,20.89
2017-01-23T01:03:29.343Z,20.91
2017-01-23T01:03:46.546Z,20.84
2017-01-23T01:04:03.728Z,20.9
2017-01-23T01:04:20.889Z,20.84
2017-01-23T01:04:38.073Z,20.91
2017-01-23T01:04:55.259Z,20.98
2017-01-23T01:05:12.448Z,20.91
2017-01-23T01:05:29.636Z,20.86
2017-01-23T01:05:46.837Z,20.86
2017-01-23T01:06:04.030Z,20.86
2017-01-23T01:06:21.231Z,20.86
2017-01-23T01:06:38.427Z,20.84
2017-01-23T01:06:55.636Z,20.86
2017-01-23T01:07:12.833Z,20.84
2017-01-23T01:07:30.037Z,20.86
2017-01-23T01:07:47.260Z,20.84
2017-01-23T01:08:04.445Z,20.83
2017-01-23T01:08:21.620Z,20.9
2017-01-23T01:08:38.810Z,20.84
2017-01-23T01:08:55.976Z,20.86
2017-01-23T01:09:13.161Z,20.86
2017-01-23T01:09:30.357Z,20.87
2017-01-23T01:09:47.530Z,20.86
2017-01-23T01:10:04.745Z,20.84
2017-01-23T01:10:21.922Z,20.86
2017-01-23T01:10:39.112Z,20.8
2017-01-23T01:10:56.302Z,20.86
2017-01-23T01:11:13.484Z,20.83
2017-01-23T01:11:30.643Z,20.86
2017-01-23T01:11:47.825Z,20.86
2017-01-23T01:12:05.004Z,20.8
2017-01-23T01:12:22.196Z,20.84
2017-01-23T01:12:39.399Z,20.84
2017-01-23T01:12:56.580Z,20.83
2017-01-23T01:13:13.774Z,20.84
2017-01-23T01:13:30.978Z,20.9
2017-01-23T01:13:48.171Z,20.83
2017-01-23T01:14:05.356Z,20.98
2017-01-23T01:14:22.568Z,20.89
2017-01-23T01:14:39.745Z,20.93
2017-01-23T01:14:56.938Z,20.86
2017-01-23T01:15:14.132Z,20.83
2017-01-23T01:15:31.335Z,20.84
2017-01-23T01:15:48.484Z,20.83
2017-01-23T01:16:05.679Z,20.86
2017-01-23T01:16:22.882Z,20.82
2017-01-23T01:16:40.094Z,20.82
2017-01-23T01:16:57.302Z,20.83
2017-01-23T01:17:14.492Z,20.82
2017-01-23T01:17:31.687Z,20.82
2017-01-23T01:17:48.867Z,20.89
2017-01-23T01:18:06.055Z,20.84
2017-01-23T01:18:23.267Z,20.76
2017-01-23T01:18:40.637Z,20.83
2017-01-23T01:18:57.853Z,20.84
2017-01-23T01:19:15.073Z,20.84
2017-01-23T01:19:32.281Z,20.86
2017-01-23T01:19:49.475Z,20.87
2017-01-23T01:20:07.326Z,20.8
2017-01-23T01:20:24.548Z,20.84
2017-01-23T01:20:41.733Z,20.83
2017-01-23T01:20:58.959Z,20.75
2017-01-23T01:21:16.162Z,20.83
2017-01-23T01:21:33.327Z,20.9
2017-01-23T01:21:50.528Z,20.9
2017-01-23T01:22:07.719Z,20.84
2017-01-23T01:22:24.949Z,20.84
2017-01-23T01:22:42.113Z,20.86
2017-01-23T01:22:59.299Z,20.84
2017-01-23T01:23:16.496Z,20.86
2017-01-23T01:23:33.688Z,20.83
2017-01-23T01:23:50.857Z,20.87
2017-01-23T01:24:08.029Z,20.86
2017-01-23T01:24:25.196Z,20.84
2017-01-23T01:24:42.389Z,20.82
2017-01-23T01:24:59.592Z,20.89
2017-01-23T01:25:16.798Z,20.86
2017-01-23T01:25:34.001Z,20.79
2017-01-23T01:25:51.175Z,20.87
2017-01-23T01:26:08.361Z,20.9
2017-01-23T01:26:25.539Z,20.84
2017-01-23T01:26:42.740Z,20.87
2017-01-23T01:26:59.955Z,20.86
2017-01-23T01:27:17.142Z,20.83
2017-01-23T01:27:34.331Z,20.84
2017-01-23T01:27:51.527Z,20.83
2017-01-23T01:28:08.719Z,20.84
2017-01-23T01:28:25.956Z,20.86
2017-01-23T01:28:43.238Z,20.87
2017-01-23T01:29:00.441Z,20.82
2017-01-23T01:29:17.603Z,20.87
2017-01-23T01:29:35.416Z,20.84
2017-01-23T01:29:52.585Z,20.8
2017-01-23T01:30:09.812Z,20.79
2017-01-23T01:30:26.987Z,20.84
2017-01-23T01:30:44.166Z,20.82
2017-01-23T01:31:01.357Z,20.89
2017-01-23T01:31:18.512Z,20.84
2017-01-23T01:31:35.699Z,20.84
2017-01-23T01:31:52.877Z,20.83
2017-01-23T01:32:10.067Z,20.84
2017-01-23T01:32:27.262Z,20.8
2017-01-23T01:32:44.453Z,20.86
2017-01-23T01:33:01.634Z,20.83
2017-01-23T01:33:18.840Z,20.82
2017-01-23T01:33:36.054Z,20.87
2017-01-23T01:33:53.268Z,20.82
2017-01-23T01:34:10.494Z,20.86
2017-01-23T01:34:27.699Z,20.84
2017-01-23T01:34:44.867Z,20.82
2017-01-23T01:35:02.697Z,20.79
2017-01-23T01:35:19.918Z,20.91
2017-01-23T01:35:37.101Z,20.82
2017-01-23T01:35:54.294Z,20.87
2017-01-23T01:36:11.480Z,20.89
2017-01-23T01:36:28.667Z,20.87
2017-01-23T01:36:45.885Z,20.93
2017-01-23T01:37:03.077Z,20.94
2017-01-23T01:37:20.248Z,20.86
2017-01-23T01:37:37.418Z,20.83
2017-01-23T01:37:54.612Z,20.76
2017-01-23T01:38:11.817Z,20.86
2017-01-23T01:38:29.640Z,20.84
2017-01-23T01:38:46.814Z,20.83
2017-01-23T01:39:03.992Z,20.86
2017-01-23T01:39:21.165Z,20.87
2017-01-23T01:39:38.344Z,20.83
2017-01-23T01:39:55.517Z,20.87
2017-01-23T01:40:12.709Z,20.83
2017-01-23T01:40:36.629Z,20.83
2017-01-23T01:40:53.793Z,20.9
2017-01-23T01:41:10.999Z,20.84
2017-01-23T01:41:28.172Z,20.86
2017-01-23T01:41:45.388Z,20.79
2017-01-23T01:42:02.577Z,20.9
2017-01-23T01:42:19.783Z,20.8
2017-01-23T01:42:36.976Z,20.83
2017-01-23T01:42:54.164Z,20.84
2017-01-23T01:43:11.326Z,20.82
2017-01-23T01:43:28.520Z,20.87
2017-01-23T01:43:45.675Z,20.83
2017-01-23T01:44:02.872Z,20.82
2017-01-23T01:44:20.066Z,20.82
2017-01-23T01:44:37.268Z,20.86
2017-01-23T01:44:54.658Z,20.74
2017-01-23T01:45:11.846Z,20.87
2017-01-23T01:45:29.020Z,20.84
2017-01-23T01:45:46.226Z,20.84
2017-01-23T01:46:03.406Z,20.8
2017-01-23T01:46:20.628Z,20.8
2017-01-23T01:46:37.800Z,20.83
2017-01-23T01:46:55.001Z,20.84
2017-01-23T01:47:12.194Z,20.79
2017-01-23T01:47:29.405Z,20.82
2017-01-23T01:47:46.616Z,20.84
2017-01-23T01:48:03.843Z,20.86
2017-01-23T01:48:21.044Z,20.84
2017-01-23T01:48:38.221Z,20.84
2017-01-23T01:48:55.430Z,20.84
2017-01-23T01:49:12.587Z,20.87
2017-01-23T01:49:30.420Z,20.82
2017-01-23T01:49:47.624Z,20.82
2017-01-23T01:50:04.841Z,20.79
2017-01-23T01:50:22.038Z,20.84
2017-01-23T01:50:39.249Z,20.8
2017-01-23T01:50:56.437Z,20.86
2017-01-23T01:51:14.270Z,20.82
2017-01-23T01:51:31.466Z,20.89
2017-01-23T01:51:48.642Z,20.83
2017-01-23T01:52:05.807Z,20.76
2017-01-23T01:52:23.005Z,20.86
2017-01-23T01:52:40.195Z,20.84
2017-01-23T01:52:57.363Z,20.83
2017-01-23T01:53:14.530Z,20.84
2017-01-23T01:53:31.688Z,20.89
2017-01-23T01:53:48.884Z,20.87
2017-01-23T01:54:06.076Z,20.84
2017-01-23T01:54:23.275Z,20.86
2017-01-23T01:54:40.479Z,20.84
2017-01-23T01:54:57.672Z,20.87
2017-01-23T01:55:14.863Z,20.93
2017-01-23T01:55:32.062Z,20.89
2017-01-23T01:55:49.256Z,20.87
2017-01-23T01:56:06.448Z,20.9
2017-01-23T01:56:23.617Z,20.9
2017-01-23T01:56:40.804Z,20.87
2017-01-23T01:56:58.013Z,20.89
2017-01-23T01:57:15.194Z,20.94
2017-01-23T01:57:32.387Z,20.94
2017-01-23T01:57:49.601Z,20.93
2017-01-23T01:58:06.794Z,21.01
2017-01-23T01:58:23.999Z,20.94
2017-01-23T01:58:41.190Z,20.98
2017-01-23T01:58:58.404Z,20.96
2017-01-23T01:59:15.567Z,20.94
2017-01-23T01:59:32.764Z,20.93
2017-01-23T01:59:49.924Z,20.91
2017-01-23T02:00:07.758Z,20.94
2017-01-23T02:00:24.953Z,20.96
2017-01-23T02:00:42.136Z,20.98
2017-01-23T02:00:59.346Z,20.99
2017-01-23T02:01:16.528Z,20.96
2017-01-23T02:01:33.731Z,21.02
2017-01-23T02:01:50.902Z,21.01
2017-01-23T02:02:08.118Z,20.98
2017-01-23T02:02:25.939Z,20.96
2017-01-23T02:02:43.126Z,20.91
2017-01-23T02:03:00.307Z,20.93
2017-01-23T02:03:17.489Z,20.96
2017-01-23T02:03:34.665Z,20.99
2017-01-23T02:03:51.858Z,20.91
2017-01-23T02:04:09.059Z,20.93
2017-01-23T02:04:26.249Z,20.96
2017-01-23T02:04:43.465Z,20.93
2017-01-23T02:05:00.625Z,20.91
2017-01-23T02:05:17.839Z,20.93
2017-01-23T02:05:35.058Z,21.01
2017-01-23T02:05:52.267Z,20.96
2017-01-23T02:06:09.461Z,20.99
2017-01-23T02:06:26.649Z,20.91
2017-01-23T02:06:43.847Z,21.02
2017-01-23T02:07:01.040Z,20.93
2017-01-23T02:07:18.233Z,20.93
2017-01-23T02:07:35.423Z,20.87
2017-01-23T02:07:52.626Z,20.89
2017-01-23T02:08:09.822Z,20.89
2017-01-23T02:08:27.014Z,20.93
2017-01-23T02:08:44.235Z,20.91
2017-01-23T02:09:01.426Z,20.89
2017-01-23T02:09:18.649Z,20.87
2017-01-23T02:09:35.835Z,20.84
2017-01-23T02:09:53.029Z,20.84
2017-01-23T02:10:10.199Z,20.9
2017-01-23T02:10:27.379Z,20.91
2017-01-23T02:10:44.571Z,20.84
2017-01-23T02:11:01.761Z,20.82
2017-01-23T02:11:18.936Z,20.86
2017-01-23T02:11:36.139Z,20.82
2017-01-23T02:11:53.309Z,20.86
2017-01-23T02:12:10.509Z,20.83
2017-01-23T02:12:27.701Z,20.87
2017-01-23T02:12:44.891Z,20.86
2017-01-23T02:13:02.077Z,20.83
2017-01-23T02:13:19.274Z,20.9
2017-01-23T02:13:36.451Z,20.83
2017-01-23T02:13:53.648Z,20.89
2017-01-23T02:14:11.659Z,20.82
2017-01-23T02:14:28.861Z,20.79
2017-01-23T02:14:46.074Z,20.83
2017-01-23T02:15:03.257Z,20.82
2017-01-23T02:15:20.442Z,20.83
2017-01-23T02:15:37.645Z,20.84
2017-01-23T02:15:54.848Z,20.82
2017-01-23T02:16:12.032Z,20.79
2017-01-23T02:16:29.249Z,20.86
2017-01-23T02:16:46.455Z,20.86
2017-01-23T02:17:03.652Z,20.84
2017-01-23T02:17:20.852Z,20.8
2017-01-23T02:17:38.052Z,20.8
2017-01-23T02:17:55.231Z,20.79
2017-01-23T02:18:12.431Z,20.82
2017-01-23T02:18:29.601Z,20.82
2017-01-23T02:18:46.768Z,20.82
2017-01-23T02:19:03.960Z,20.8
2017-01-23T02:19:21.131Z,20.83
2017-01-23T02:19:38.336Z,20.82
2017-01-23T02:19:55.533Z,20.82
2017-01-23T02:20:12.718Z,20.79
2017-01-23T02:20:29.888Z,20.83
2017-01-23T02:20:47.069Z,20.82
2017-01-23T02:21:04.235Z,20.8
2017-01-23T02:21:21.438Z,20.82
2017-01-23T02:21:38.619Z,20.75
2017-01-23T02:21:55.818Z,20.82
2017-01-23T02:22:13.013Z,20.86
2017-01-23T02:22:30.184Z,20.76
2017-01-23T02:22:47.371Z,20.83
2017-01-23T02:23:04.562Z,20.79
2017-01-23T02:23:21.759Z,20.84
2017-01-23T02:23:38.958Z,20.84
2017-01-23T02:23:56.140Z,20.8
2017-01-23T02:24:13.344Z,20.83
2017-01-23T02:24:30.526Z,20.84
2017-01-23T02:24:47.729Z,20.86
2017-01-23T02:25:04.920Z,20.84
2017-01-23T02:25:22.095Z,20.87
2017-01-23T02:25:39.269Z,20.87
2017-01-23T02:25:56.430Z,20.86
2017-01-23T02:26:13.610Z,20.96
2017-01-23T02:26:30.815Z,20.9
2017-01-23T02:26:48.005Z,20.98
2017-01-23T02:27:05.205Z,20.86
2017-01-23T02:27:22.403Z,20.94
2017-01-23T02:27:39.580Z,20.87
2017-01-23T02:27:56.742Z,20.94
2017-01-23T02:28:13.906Z,20.9
2017-01-23T02:28:31.105Z,20.89
2017-01-23T02:28:48.294Z,20.89
2017-01-23T02:29:05.480Z,20.9
2017-01-23T02:29:22.670Z,20.84
2017-01-23T02:29:39.913Z,20.9
2017-01-23T02:29:57.113Z,20.84
2017-01-23T02:30:14.290Z,20.86
2017-01-23T02:30:31.494Z,20.89
2017-01-23T02:30:48.668Z,20.8
2017-01-23T02:31:05.864Z,20.82
2017-01-23T02:31:23.077Z,20.86
2017-01-23T02:31:40.291Z,20.87
2017-01-23T02:31:57.481Z,20.76
2017-01-23T02:32:14.694Z,20.8
2017-01-23T02:32:31.872Z,20.79
2017-01-23T02:32:49.119Z,20.8
2017-01-23T02:33:06.299Z,20.8
2017-01-23T02:33:23.499Z,20.8
2017-01-23T02:33:40.732Z,20.79
2017-01-23T02:33:57.932Z,20.71
2017-01-23T02:34:29.536Z,20.76
2017-01-23T02:34:46.732Z,20.74
2017-01-23T02:35:03.923Z,20.74
2017-01-23T02:35:21.123Z,20.8
2017-01-23T02:35:38.299Z,20.75
2017-01-23T02:35:55.500Z,20.74
2017-01-23T02:36:12.686Z,20.72
2017-01-23T02:36:29.881Z,20.79
2017-01-23T02:36:47.061Z,20.74
2017-01-23T02:37:04.255Z,20.83
2017-01-23T02:37:21.437Z,20.76
2017-01-23T02:37:38.623Z,20.72
2017-01-23T02:37:56.448Z,20.69
2017-01-23T02:38:13.628Z,20.8
2017-01-23T02:38:30.810Z,20.68
2017-01-23T02:38:47.991Z,20.72
2017-01-23T02:39:05.171Z,20.62
2017-01-23T02:39:22.342Z,20.74
2017-01-23T02:39:39.518Z,20.71
2017-01-23T02:39:56.710Z,20.57
2017-01-23T02:40:28.320Z,20.74
2017-01-23T02:40:45.522Z,20.68
2017-01-23T02:41:02.720Z,20.8
2017-01-23T02:41:19.941Z,20.76
2017-01-23T02:41:37.149Z,20.74
2017-01-23T02:41:54.331Z,20.74
2017-01-23T02:42:11.533Z,20.72
2017-01-23T02:42:29.351Z,20.79
2017-01-23T02:42:46.563Z,20.69
2017-01-23T02:43:03.769Z,20.8
2017-01-23T02:43:20.953Z,20.8
2017-01-23T02:43:38.151Z,20.74
2017-01-23T02:43:55.338Z,20.69
2017-01-23T02:44:12.505Z,20.8
2017-01-23T02:44:29.697Z,20.82
2017-01-23T02:44:46.888Z,20.84
2017-01-23T02:45:04.095Z,20.82
2017-01-23T02:45:21.296Z,20.83
2017-01-23T02:45:38.498Z,20.76
2017-01-23T02:45:55.674Z,20.79
2017-01-23T02:46:12.949Z,20.76
2017-01-23T02:46:30.117Z,20.71
2017-01-23T02:46:47.318Z,20.75
2017-01-23T02:47:04.498Z,20.76
2017-01-23T02:47:21.686Z,20.76
2017-01-23T02:47:38.865Z,20.8
2017-01-23T02:47:56.046Z,20.72
2017-01-23T02:48:13.243Z,20.75
2017-01-23T02:48:30.453Z,20.79
2017-01-23T02:48:47.662Z,20.75
2017-01-23T02:49:05.493Z,20.72
2017-01-23T02:49:22.707Z,20.8
2017-01-23T02:49:39.894Z,20.74
2017-01-23T02:49:57.092Z,20.74
2017-01-23T02:50:14.315Z,20.76
2017-01-23T02:50:31.528Z,20.72
2017-01-23T02:50:48.728Z,20.76
2017-01-23T02:51:06.560Z,20.72
2017-01-23T02:51:23.745Z,20.72
2017-01-23T02:51:40.930Z,20.76
2017-01-23T02:51:58.096Z,20.79
2017-01-23T02:52:15.259Z,20.71
2017-01-23T02:52:32.431Z,20.76
2017-01-23T02:52:49.611Z,20.74
2017-01-23T02:53:06.794Z,20.74
2017-01-23T02:53:23.981Z,20.82
2017-01-23T02:53:41.180Z,20.74
2017-01-23T02:53:58.387Z,20.8
2017-01-23T02:54:15.578Z,20.84
2017-01-23T02:54:32.737Z,20.82
2017-01-23T02:54:49.922Z,20.75
2017-01-23T02:55:07.104Z,20.84
2017-01-23T02:55:24.278Z,20.8
2017-01-23T02:55:41.489Z,20.69
2017-01-23T02:55:58.672Z,20.8
2017-01-23T02:56:15.877Z,20.82
2017-01-23T02:56:33.044Z,20.74
2017-01-23T02:56:50.251Z,20.71
2017-01-23T02:57:07.464Z,20.76
2017-01-23T02:57:24.663Z,20.82
2017-01-23T02:57:41.866Z,20.79
2017-01-23T02:57:59.069Z,20.71
2017-01-23T02:58:16.236Z,20.8
2017-01-23T02:58:33.426Z,20.72
2017-01-23T02:58:50.598Z,20.66
2017-01-23T02:59:07.796Z,20.76
2017-01-23T02:59:24.989Z,20.76
2017-01-23T02:59:42.169Z,20.8
2017-01-23T02:59:59.349Z,20.86
2017-01-23T03:00:16.527Z,20.86
2017-01-23T03:00:34.646Z,20.83
2017-01-23T03:00:51.850Z,20.83
2017-01-23T03:01:09.040Z,20.86
2017-01-23T03:01:26.236Z,20.86
2017-01-23T03:01:43.422Z,20.89
2017-01-23T03:02:00.598Z,20.83
2017-01-23T03:02:18.394Z,20.87
2017-01-23T03:02:35.594Z,20.79
2017-01-23T03:02:52.771Z,20.83
2017-01-23T03:03:09.972Z,20.82
2017-01-23T03:03:27.192Z,20.8
2017-01-23T03:03:44.374Z,20.79
2017-01-23T03:04:01.553Z,20.82
2017-01-23T03:04:18.917Z,20.76
2017-01-23T03:04:36.093Z,20.75
2017-01-23T03:04:53.287Z,20.72
2017-01-23T03:05:10.473Z,20.82
2017-01-23T03:05:27.652Z,20.75
2017-01-23T03:05:44.839Z,20.83
2017-01-23T03:06:02.019Z,20.82
2017-01-23T03:06:19.218Z,20.74
2017-01-23T03:06:36.400Z,20.79
2017-01-23T03:06:53.587Z,20.66
2017-01-23T03:07:10.791Z,20.76
2017-01-23T03:07:27.992Z,20.82
2017-01-23T03:07:45.182Z,20.8
2017-01-23T03:08:02.344Z,20.79
2017-01-23T03:08:19.523Z,20.79
2017-01-23T03:08:36.719Z,20.79
2017-01-23T03:08:53.931Z,20.79
2017-01-23T03:09:11.116Z,20.82
2017-01-23T03:09:28.296Z,20.83
2017-01-23T03:09:45.471Z,20.8
2017-01-23T03:10:02.681Z,20.79
2017-01-23T03:10:19.877Z,20.82
2017-01-23T03:10:37.066Z,20.83
2017-01-23T03:10:54.218Z,20.82
2017-01-23T03:11:11.391Z,20.82
2017-01-23T03:11:28.597Z,20.8
2017-01-23T03:11:45.765Z,20.86
2017-01-23T03:12:02.972Z,20.82
2017-01-23T03:12:20.170Z,20.86
2017-01-23T03:12:37.384Z,20.8
2017-01-23T03:12:54.564Z,20.8
2017-01-23T03:13:11.746Z,20.82
2017-01-23T03:13:28.932Z,20.83
2017-01-23T03:13:46.141Z,20.8
2017-01-23T03:14:03.367Z,20.82
2017-01-23T03:14:20.553Z,20.84
2017-01-23T03:14:37.775Z,20.76
2017-01-23T03:14:54.984Z,20.82
2017-01-23T03:15:12.184Z,20.68
2017-01-23T03:15:29.368Z,20.83
2017-01-23T03:15:46.542Z,20.75
2017-01-23T03:16:03.735Z,20.82
2017-01-23T03:16:20.927Z,20.76
2017-01-23T03:16:38.097Z,20.76
2017-01-23T03:16:55.278Z,20.8
2017-01-23T03:17:12.475Z,20.76
2017-01-23T03:17:29.656Z,20.82
2017-01-23T03:17:46.870Z,20.84
2017-01-23T03:18:04.070Z,20.8
2017-01-23T03:18:21.245Z,20.82
2017-01-23T03:18:38.446Z,20.83
2017-01-23T03:18:55.658Z,20.82
2017-01-23T03:19:12.840Z,20.83
2017-01-23T03:19:30.041Z,20.79
2017-01-23T03:19:47.201Z,20.75
2017-01-23T03:20:04.406Z,20.72
2017-01-23T03:20:21.606Z,20.76
2017-01-23T03:20:38.811Z,20.82
2017-01-23T03:20:55.983Z,20.8
2017-01-23T03:21:13.156Z,20.82
2017-01-23T03:21:30.326Z,20.82
2017-01-23T03:21:47.516Z,20.82
2017-01-23T03:22:04.678Z,20.8
2017-01-23T03:22:21.893Z,20.8
2017-01-23T03:22:39.095Z,20.8
2017-01-23T03:22:56.346Z,20.79
2017-01-23T03:23:13.526Z,20.76
2017-01-23T03:23:31.380Z,20.82
2017-01-23T03:23:48.593Z,20.84
2017-01-23T03:24:05.779Z,20.82
2017-01-23T03:24:22.996Z,20.82
2017-01-23T03:24:40.169Z,20.84
2017-01-23T03:24:57.424Z,20.83
2017-01-23T03:25:14.633Z,20.87
2017-01-23T03:25:31.808Z,20.82
2017-01-23T03:25:49.011Z,20.82
2017-01-23T03:26:06.211Z,20.82
2017-01-23T03:26:23.399Z,20.8
2017-01-23T03:26:40.604Z,20.84
2017-01-23T03:26:57.785Z,20.82
2017-01-23T03:27:14.997Z,20.83
2017-01-23T03:27:32.174Z,20.8
2017-01-23T03:27:49.361Z,20.83
2017-01-23T03:28:06.571Z,20.8
2017-01-23T03:28:23.783Z,20.86
2017-01-23T03:28:40.973Z,20.83
2017-01-23T03:28:58.161Z,20.86
2017-01-23T03:29:15.385Z,20.83
2017-01-23T03:29:32.587Z,20.87
2017-01-23T03:29:49.795Z,20.84
2017-01-23T03:30:06.958Z,20.86
2017-01-23T03:30:24.133Z,20.84
2017-01-23T03:30:41.339Z,20.86
2017-01-23T03:30:58.538Z,20.87
2017-01-23T03:31:15.737Z,20.86
2017-01-23T03:31:32.941Z,20.82
2017-01-23T03:31:50.126Z,20.89
2017-01-23T03:32:07.323Z,20.89
2017-01-23T03:32:24.517Z,20.89
2017-01-23T03:32:41.698Z,20.89
2017-01-23T03:32:58.893Z,20.93
2017-01-23T03:33:16.081Z,20.98
2017-01-23T03:33:33.265Z,20.89
2017-01-23T03:33:50.465Z,20.89
2017-01-23T03:34:07.648Z,20.83
2017-01-23T03:34:24.845Z,20.86
2017-01-23T03:34:42.037Z,20.86
2017-01-23T03:34:59.235Z,20.84
2017-01-23T03:35:16.422Z,20.82
2017-01-23T03:35:34.243Z,20.79
2017-01-23T03:35:51.789Z,20.83
